METAR AND TAF INFORMATION
METAR FOR FALE
ADDS - METARS form results

(0640 UTC 25 August 2019)
Data provider http://aviationweather.gov/metar/data/
 
METAR text: FALE 250619Z 20004KT CAVOK 24/07 Q1017 NOSIG
Conditions at: FALE (DURBAN SHAKA , ZA) observed 0619 UTC 25 August 2019
Temperature: 24.0°C (75°F)
Dewpoint: 7.0°C (45°F) [RH = 34%]
Pressure (altimeter): 30.03 inches Hg (1017.0 mb)
Winds: from the SSW (200 degrees) at 5 MPH (4 knots; 2.1 m/s)
Visibility: 6 or more miles (10+ km)
Ceiling: ceiling and visibility are OK
Clouds: unknown
Weather: no significant weather observed at this time

METAR text: FALE 250600Z 20004KT CAVOK 21/07 Q1017 NOSIG
Conditions at: FALE (DURBAN SHAKA , ZA) observed 0600 UTC 25 August 2019
Temperature: 21.0°C (70°F)
Dewpoint: 7.0°C (45°F) [RH = 40%]
Pressure (altimeter): 30.03 inches Hg (1017.0 mb)
Winds: from the SSW (200 degrees) at 5 MPH (4 knots; 2.1 m/s)
Visibility: 6 or more miles (10+ km)
Ceiling: ceiling and visibility are OK
Clouds: unknown
Weather: no significant weather observed at this time

METAR text: FALE 250557Z 20004KT CAVOK 21/07 Q1017 NOSIG
Conditions at: FALE (DURBAN SHAKA , ZA) observed 0557 UTC 25 August 2019
Temperature: 21.0°C (70°F)
Dewpoint: 7.0°C (45°F) [RH = 40%]
Pressure (altimeter): 30.03 inches Hg (1017.0 mb)
Winds: from the SSW (200 degrees) at 5 MPH (4 knots; 2.1 m/s)
Visibility: 6 or more miles (10+ km)
Ceiling: ceiling and visibility are OK
Clouds: unknown
Weather: no significant weather observed at this time

Forecast for: FALE (DURBAN SHAKA , ZA)
Text: TAF FALE 250400Z 2506/2612 28005KT CAVOK TX30/2511Z TN12/2604Z
Forecast period: 0600 to 1200 UTC 25 August 2019
Forecast type: FROM: standard forecast or significant change
Winds: from the W (280 degrees) at 6 MPH (5 knots; 2.6 m/s)
Visibility: 6 or more miles 10+ km)
Ceiling: unknown
Clouds: missing
Weather: no significant weather forecast for this period
Text: BECMG 2512/2514 22012KT
Forecast period: 1200 to 2000 UTC 25 August 2019
Forecast type: BECOMING: Conditions expected to become as follows by 1400 UTC 25 August 2019
Winds: from the SW (220 degrees) at 14 MPH (12 knots; 6.2 m/s)
Visibility: 6 or more miles 10+ km)
Ceiling: unknown
Clouds: missing
Weather: no significant weather forecast for this period
Text: FM252000 20005KT 9999 SCT030
Forecast period: 2000 UTC 25 August 2019 to 0800 UTC 26 August 2019
Forecast type: FROM: standard forecast or significant change
Winds: from the SSW (200 degrees) at 6 MPH (5 knots; 2.6 m/s)
Visibility: 6 or more miles 10+ km)
Ceiling: at least 12,000 feet AGL
Clouds: scattered clouds at 3000 feet AGL
Weather: no significant weather forecast for this period
Text: BECMG 2608/2610 14010KT BKN030
Forecast period: 0800 to 1200 UTC 26 August 2019
Forecast type: BECOMING: Conditions expected to become as follows by 1000 UTC 26 August 2019
Winds: from the SE (140 degrees) at 12 MPH (10 knots; 5.1 m/s)
Visibility: 6 or more miles 10+ km)
Ceiling: 3000 feet AGL
Clouds: broken clouds at 3000 feet AGL
Weather: no significant weather forecast for this period

 AIRPORT MAP

 RUNWAY INFORMATION
Runway 06 Runway length 12139 ft Runway width 197 ft
Runway elevation 304 ft Runway displaced threshold 0 ft Runway heading 61
Runway 24 Runway length 12139 ft Runway width 197 ft
Runway elevation 304 ft Runway displaced threshold 0 ft Runway heading 241

 AIRPORT FREQUENCIES
Type DURBAN App Name Frequency 125.75 MHZ
Type KING SHAKA Name Frequency 127 MHZ
Type KING SHAKA Name KING SHAKA Frequency 118.45 MHZ
Type KING SHAKA Name Frequency 121.65 MHZ
Type VOT TGV Name Frequency 115.6 MHZ

 AIRPORT NEAR NAVIGATION AIDS



The South Africal Virtual Air Force